sensor_id;sensor_type;location;lat;lon;timestamp;pressure;altitude;pressure_sealevel;temperature;humidity
51999;BME280;38015;50.924;11.598;2023-03-14T00:02:30;97287.47;;;22.55;31.44
51999;BME280;38015;50.924;11.598;2023-03-14T00:05:00;97282.26;;;22.32;31.88
51999;BME280;38015;50.924;11.598;2023-03-14T00:07:30;97279.37;;;22.36;31.77
51999;BME280;38015;50.924;11.598;2023-03-14T00:10:02;97281.10;;;22.32;31.85
51999;BME280;38015;50.924;11.598;2023-03-14T00:12:31;97284.91;;;22.27;32.04
51999;BME280;38015;50.924;11.598;2023-03-14T00:15:02;97311.37;;;22.36;31.78
51999;BME280;38015;50.924;11.598;2023-03-14T00:17:33;97324.26;;;22.32;31.94
51999;BME280;38015;50.924;11.598;2023-03-14T00:20:05;97315.67;;;22.47;31.66
51999;BME280;38015;50.924;11.598;2023-03-14T00:22:34;97317.47;;;22.40;31.74
51999;BME280;38015;50.924;11.598;2023-03-14T00:25:05;97312.57;;;22.53;31.51
51999;BME280;38015;50.924;11.598;2023-03-14T00:27:34;97300.16;;;22.20;32.12
51999;BME280;38015;50.924;11.598;2023-03-14T00:30:06;97301.49;;;22.22;32.11
51999;BME280;38015;50.924;11.598;2023-03-14T00:32:36;97298.71;;;22.24;32.10
51999;BME280;38015;50.924;11.598;2023-03-14T00:35:08;97298.01;;;22.19;32.19
51999;BME280;38015;50.924;11.598;2023-03-14T00:37:37;97296.31;;;22.30;32.01
51999;BME280;38015;50.924;11.598;2023-03-14T00:40:08;97295.56;;;22.45;31.67
51999;BME280;38015;50.924;11.598;2023-03-14T00:42:37;97308.55;;;22.64;31.28
51999;BME280;38015;50.924;11.598;2023-03-14T00:45:08;97322.42;;;22.50;31.55
51999;BME280;38015;50.924;11.598;2023-03-14T00:47:39;97351.01;;;22.20;32.12
51999;BME280;38015;50.924;11.598;2023-03-14T00:50:10;97351.88;;;22.44;31.65
51999;BME280;38015;50.924;11.598;2023-03-14T00:52:40;97346.74;;;22.42;31.73
51999;BME280;38015;50.924;11.598;2023-03-14T00:55:09;97347.67;;;22.33;31.91
51999;BME280;38015;50.924;11.598;2023-03-14T00:57:40;97347.15;;;22.47;31.62
51999;BME280;38015;50.924;11.598;2023-03-14T01:00:11;97358.39;;;22.32;31.85
51999;BME280;38015;50.924;11.598;2023-03-14T01:02:41;97353.17;;;22.54;31.46
51999;BME280;38015;50.924;11.598;2023-03-14T01:05:11;97360.18;;;22.44;31.65
51999;BME280;38015;50.924;11.598;2023-03-14T01:07:42;97369.24;;;22.42;31.68
51999;BME280;38015;50.924;11.598;2023-03-14T01:10:14;97364.99;;;22.40;31.71
51999;BME280;38015;50.924;11.598;2023-03-14T01:12:43;97364.39;;;22.52;31.44
51999;BME280;38015;50.924;11.598;2023-03-14T01:15:13;97360.18;;;22.58;31.29
51999;BME280;38015;50.924;11.598;2023-03-14T01:17:44;97380.89;;;22.54;31.34
51999;BME280;38015;50.924;11.598;2023-03-14T01:20:15;97371.36;;;22.65;31.10
51999;BME280;38015;50.924;11.598;2023-03-14T01:22:45;97381.40;;;22.44;31.47
51999;BME280;38015;50.924;11.598;2023-03-14T01:25:16;97383.38;;;22.41;31.51
51999;BME280;38015;50.924;11.598;2023-03-14T01:27:45;97378.24;;;22.48;31.36
51999;BME280;38015;50.924;11.598;2023-03-14T01:30:18;97373.55;;;22.59;31.16
51999;BME280;38015;50.924;11.598;2023-03-14T01:32:46;97374.80;;;22.49;31.32
51999;BME280;38015;50.924;11.598;2023-03-14T01:35:17;97375.49;;;22.53;31.21
51999;BME280;38015;50.924;11.598;2023-03-14T01:37:47;97375.90;;;22.59;31.04
51999;BME280;38015;50.924;11.598;2023-03-14T01:40:18;97360.69;;;22.65;30.94
51999;BME280;38015;50.924;11.598;2023-03-14T01:42:55;97344.40;;;22.67;30.85
51999;BME280;38015;50.924;11.598;2023-03-14T01:47:49;97335.41;;;22.52;31.10
51999;BME280;38015;50.924;11.598;2023-03-14T01:50:20;97326.25;;;22.59;30.94
51999;BME280;38015;50.924;11.598;2023-03-14T01:52:50;97324.97;;;22.54;31.02
51999;BME280;38015;50.924;11.598;2023-03-14T01:55:24;97315.03;;;22.53;30.98
51999;BME280;38015;50.924;11.598;2023-03-14T01:57:54;97308.33;;;22.57;30.91
51999;BME280;38015;50.924;11.598;2023-03-14T02:00:23;97310.75;;;22.48;31.07
51999;BME280;38015;50.924;11.598;2023-03-14T02:02:55;97309.19;;;22.37;31.24
51999;BME280;38015;50.924;11.598;2023-03-14T02:05:24;97304.03;;;22.40;31.15
51999;BME280;38015;50.924;11.598;2023-03-14T02:07:55;97311.65;;;22.36;31.22
51999;BME280;38015;50.924;11.598;2023-03-14T02:10:28;97308.37;;;22.63;30.69
51999;BME280;38015;50.924;11.598;2023-03-14T02:12:57;97294.39;;;22.40;31.10
51999;BME280;38015;50.924;11.598;2023-03-14T02:15:27;97289.15;;;22.10;31.64
51999;BME280;38015;50.924;11.598;2023-03-14T02:17:57;97293.89;;;22.37;31.11
51999;BME280;38015;50.924;11.598;2023-03-14T02:20:32;97285.72;;;22.24;31.33
51999;BME280;38015;50.924;11.598;2023-03-14T02:22:57;97288.95;;;22.24;31.34
51999;BME280;38015;50.924;11.598;2023-03-14T02:25:37;97278.49;;;22.22;31.37
51999;BME280;38015;50.924;11.598;2023-03-14T02:27:58;97278.00;;;22.14;31.47
51999;BME280;38015;50.924;11.598;2023-03-14T02:30:29;97279.46;;;22.28;31.15
51999;BME280;38015;50.924;11.598;2023-03-14T02:32:59;97274.91;;;22.11;31.50
51999;BME280;38015;50.924;11.598;2023-03-14T02:35:32;97275.14;;;22.30;31.14
51999;BME280;38015;50.924;11.598;2023-03-14T02:38:03;97271.48;;;21.96;31.72
51999;BME280;38015;50.924;11.598;2023-03-14T02:40:29;97274.13;;;22.18;31.33
51999;BME280;38015;50.924;11.598;2023-03-14T02:43:00;97276.35;;;22.09;31.44
51999;BME280;38015;50.924;11.598;2023-03-14T02:45:37;97270.64;;;22.10;31.40
51999;BME280;38015;50.924;11.598;2023-03-14T02:48:06;97278.87;;;22.37;30.86
51999;BME280;38015;50.924;11.598;2023-03-14T02:50:32;97279.03;;;22.34;30.91
51999;BME280;38015;50.924;11.598;2023-03-14T02:53:03;97279.81;;;22.22;31.11
51999;BME280;38015;50.924;11.598;2023-03-14T02:55:32;97280.87;;;22.12;31.24
51999;BME280;38015;50.924;11.598;2023-03-14T02:58:03;97289.23;;;22.22;31.08
51999;BME280;38015;50.924;11.598;2023-03-14T03:00:33;97280.16;;;22.10;31.27
51999;BME280;38015;50.924;11.598;2023-03-14T03:03:04;97272.87;;;21.85;31.75
51999;BME280;38015;50.924;11.598;2023-03-14T03:05:34;97267.85;;;22.35;30.79
51999;BME280;38015;50.924;11.598;2023-03-14T03:08:05;97253.00;;;21.87;31.63
51999;BME280;38015;50.924;11.598;2023-03-14T03:10:35;97235.17;;;22.36;30.70
51999;BME280;38015;50.924;11.598;2023-03-14T03:13:05;97228.42;;;22.25;30.89
51999;BME280;38015;50.924;11.598;2023-03-14T03:15:36;97232.82;;;22.22;30.94
51999;BME280;38015;50.924;11.598;2023-03-14T03:18:06;97234.12;;;22.18;30.96
51999;BME280;38015;50.924;11.598;2023-03-14T03:20:37;97224.77;;;22.26;30.86
51999;BME280;38015;50.924;11.598;2023-03-14T03:23:07;97223.00;;;22.12;31.09
51999;BME280;38015;50.924;11.598;2023-03-14T03:25:38;97223.10;;;22.20;30.91
51999;BME280;38015;50.924;11.598;2023-03-14T03:28:08;97219.98;;;22.38;30.54
51999;BME280;38015;50.924;11.598;2023-03-14T03:30:39;97215.67;;;22.24;30.76
51999;BME280;38015;50.924;11.598;2023-03-14T03:33:09;97218.34;;;22.13;30.95
51999;BME280;38015;50.924;11.598;2023-03-14T03:35:43;97212.45;;;22.06;31.08
51999;BME280;38015;50.924;11.598;2023-03-14T03:38:10;97219.60;;;22.01;31.15
51999;BME280;38015;50.924;11.598;2023-03-14T03:40:41;97209.11;;;22.01;31.15
51999;BME280;38015;50.924;11.598;2023-03-14T03:43:11;97214.62;;;22.16;30.86
51999;BME280;38015;50.924;11.598;2023-03-14T03:45:42;97209.99;;;22.27;30.66
51999;BME280;38015;50.924;11.598;2023-03-14T03:48:12;97210.73;;;22.13;30.85
51999;BME280;38015;50.924;11.598;2023-03-14T03:50:45;97208.97;;;22.26;30.62
51999;BME280;38015;50.924;11.598;2023-03-14T03:53:13;97200.01;;;22.03;31.01
51999;BME280;38015;50.924;11.598;2023-03-14T03:55:43;97212.07;;;22.08;30.95
51999;BME280;38015;50.924;11.598;2023-03-14T03:58:14;97207.81;;;22.22;30.66
51999;BME280;38015;50.924;11.598;2023-03-14T04:00:45;97202.13;;;22.08;30.91
51999;BME280;38015;50.924;11.598;2023-03-14T04:03:15;97200.27;;;22.25;30.55
51999;BME280;38015;50.924;11.598;2023-03-14T04:05:46;97197.05;;;22.24;30.54
51999;BME280;38015;50.924;11.598;2023-03-14T04:08:16;97194.24;;;22.39;30.24
51999;BME280;38015;50.924;11.598;2023-03-14T04:10:48;97193.35;;;22.28;30.47
51999;BME280;38015;50.924;11.598;2023-03-14T04:13:17;97201.21;;;22.14;30.67
51999;BME280;38015;50.924;11.598;2023-03-14T04:15:47;97201.07;;;22.15;30.66
51999;BME280;38015;50.924;11.598;2023-03-14T04:18:18;97206.85;;;22.27;30.46
51999;BME280;38015;50.924;11.598;2023-03-14T04:20:51;97201.46;;;22.42;30.11
51999;BME280;38015;50.924;11.598;2023-03-14T04:23:19;97191.04;;;22.38;30.18
51999;BME280;38015;50.924;11.598;2023-03-14T04:25:49;97190.53;;;22.53;29.88
51999;BME280;38015;50.924;11.598;2023-03-14T04:28:20;97193.67;;;22.51;29.92
51999;BME280;38015;50.924;11.598;2023-03-14T04:30:50;97199.51;;;22.55;29.82
51999;BME280;38015;50.924;11.598;2023-03-14T04:33:21;97193.42;;;22.50;29.90
51999;BME280;38015;50.924;11.598;2023-03-14T04:35:53;97192.42;;;22.52;29.87
51999;BME280;38015;50.924;11.598;2023-03-14T04:38:22;97203.56;;;22.54;29.81
51999;BME280;38015;50.924;11.598;2023-03-14T04:40:52;97203.35;;;22.39;30.06
51999;BME280;38015;50.924;11.598;2023-03-14T04:43:23;97191.57;;;22.59;29.68
51999;BME280;38015;50.924;11.598;2023-03-14T04:45:53;97186.95;;;22.39;30.04
51999;BME280;38015;50.924;11.598;2023-03-14T04:48:24;97173.93;;;22.42;29.96
51999;BME280;38015;50.924;11.598;2023-03-14T04:50:54;97178.78;;;22.43;29.94
51999;BME280;38015;50.924;11.598;2023-03-14T04:53:25;97165.38;;;22.18;30.39
51999;BME280;38015;50.924;11.598;2023-03-14T04:55:55;97161.61;;;22.33;30.10
51999;BME280;38015;50.924;11.598;2023-03-14T04:58:25;97158.07;;;22.43;29.95
51999;BME280;38015;50.924;11.598;2023-03-14T05:01:01;97160.54;;;22.32;30.13
51999;BME280;38015;50.924;11.598;2023-03-14T05:03:26;97154.19;;;22.45;29.87
51999;BME280;38015;50.924;11.598;2023-03-14T05:05:57;97149.75;;;22.37;30.03
51999;BME280;38015;50.924;11.598;2023-03-14T05:08:28;97143.46;;;22.35;30.04
51999;BME280;38015;50.924;11.598;2023-03-14T05:10:58;97133.84;;;22.35;29.99
51999;BME280;38015;50.924;11.598;2023-03-14T05:13:28;97133.81;;;22.47;29.78
51999;BME280;38015;50.924;11.598;2023-03-14T05:16:04;97140.11;;;22.59;29.56
51999;BME280;38015;50.924;11.598;2023-03-14T05:18:29;97142.70;;;22.64;29.46
51999;BME280;38015;50.924;11.598;2023-03-14T05:21:00;97137.66;;;22.23;30.13
51999;BME280;38015;50.924;11.598;2023-03-14T05:23:30;97141.37;;;21.38;31.80
51999;BME280;38015;50.924;11.598;2023-03-14T05:26:01;97149.25;;;22.02;30.73
51999;BME280;38015;50.924;11.598;2023-03-14T05:28:31;97149.04;;;22.55;29.65
51999;BME280;38015;50.924;11.598;2023-03-14T05:31:07;97152.01;;;22.24;30.19
51999;BME280;38015;50.924;11.598;2023-03-14T05:33:33;97159.75;;;22.44;29.84
51999;BME280;38015;50.924;11.598;2023-03-14T05:36:03;97164.80;;;22.01;30.58
51999;BME280;38015;50.924;11.598;2023-03-14T05:38:33;97176.04;;;22.36;29.94
51999;BME280;38015;50.924;11.598;2023-03-14T05:41:04;97168.38;;;21.97;30.72
51999;BME280;38015;50.924;11.598;2023-03-14T05:43:34;97164.89;;;22.35;29.99
51999;BME280;38015;50.924;11.598;2023-03-14T05:46:05;97163.89;;;22.52;29.66
51999;BME280;38015;50.924;11.598;2023-03-14T05:48:35;97163.19;;;22.47;29.77
51999;BME280;38015;50.924;11.598;2023-03-14T05:51:06;97158.77;;;22.57;29.56
51999;BME280;38015;50.924;11.598;2023-03-14T05:53:36;97163.03;;;22.68;29.35
51999;BME280;38015;50.924;11.598;2023-03-14T05:56:07;97161.31;;;22.53;29.57
51999;BME280;38015;50.924;11.598;2023-03-14T05:58:37;97152.85;;;22.64;29.39
51999;BME280;38015;50.924;11.598;2023-03-14T06:01:07;97150.51;;;22.32;29.94
51999;BME280;38015;50.924;11.598;2023-03-14T06:03:38;97151.32;;;22.35;29.89
51999;BME280;38015;50.924;11.598;2023-03-14T06:06:08;97154.44;;;22.52;29.57
51999;BME280;38015;50.924;11.598;2023-03-14T06:08:39;97153.08;;;22.65;29.33
51999;BME280;38015;50.924;11.598;2023-03-14T06:11:09;97156.57;;;22.61;29.38
51999;BME280;38015;50.924;11.598;2023-03-14T06:13:40;97166.25;;;22.71;29.17
51999;BME280;38015;50.924;11.598;2023-03-14T06:16:11;97177.46;;;22.55;29.47
51999;BME280;38015;50.924;11.598;2023-03-14T06:18:40;97177.14;;;22.63;29.33
51999;BME280;38015;50.924;11.598;2023-03-14T06:21:11;97166.78;;;22.63;29.31
51999;BME280;38015;50.924;11.598;2023-03-14T06:23:42;97173.59;;;22.61;29.31
51999;BME280;38015;50.924;11.598;2023-03-14T06:26:12;97180.26;;;22.67;29.20
51999;BME280;38015;50.924;11.598;2023-03-14T06:28:44;97185.62;;;22.66;29.20
51999;BME280;38015;50.924;11.598;2023-03-14T06:31:13;97179.95;;;22.48;29.51
51999;BME280;38015;50.924;11.598;2023-03-14T06:33:44;97183.03;;;22.62;29.26
51999;BME280;38015;50.924;11.598;2023-03-14T06:36:14;97184.53;;;22.73;29.05
51999;BME280;38015;50.924;11.598;2023-03-14T06:38:44;97192.00;;;22.62;29.25
51999;BME280;38015;50.924;11.598;2023-03-14T06:41:15;97193.59;;;22.70;29.09
51999;BME280;38015;50.924;11.598;2023-03-14T06:43:45;97184.53;;;22.64;29.18
51999;BME280;38015;50.924;11.598;2023-03-14T06:46:16;97186.71;;;22.69;29.09
51999;BME280;38015;50.924;11.598;2023-03-14T06:48:46;97183.50;;;22.62;29.21
51999;BME280;38015;50.924;11.598;2023-03-14T06:51:17;97177.08;;;22.73;29.03
51999;BME280;38015;50.924;11.598;2023-03-14T06:53:47;97172.42;;;22.62;29.19
51999;BME280;38015;50.924;11.598;2023-03-14T06:56:17;97172.71;;;22.58;29.23
51999;BME280;38015;50.924;11.598;2023-03-14T06:58:48;97167.61;;;22.78;28.89
51999;BME280;38015;50.924;11.598;2023-03-14T07:01:22;97166.64;;;22.77;28.91
51999;BME280;38015;50.924;11.598;2023-03-14T07:03:51;97170.48;;;22.58;29.21
51999;BME280;38015;50.924;11.598;2023-03-14T07:06:19;97174.46;;;22.71;29.02
51999;BME280;38015;50.924;11.598;2023-03-14T07:08:51;97170.61;;;22.73;28.96
51999;BME280;38015;50.924;11.598;2023-03-14T07:11:21;97166.30;;;22.43;29.44
51999;BME280;38015;50.924;11.598;2023-03-14T07:13:51;97165.22;;;22.75;28.91
51999;BME280;38015;50.924;11.598;2023-03-14T07:16:21;97159.02;;;22.28;29.77
51999;BME280;38015;50.924;11.598;2023-03-14T07:18:52;97160.37;;;22.64;29.12
51999;BME280;38015;50.924;11.598;2023-03-14T07:21:23;97155.45;;;22.21;29.82
51999;BME280;38015;50.924;11.598;2023-03-14T07:23:53;97165.15;;;22.62;29.12
51999;BME280;38015;50.924;11.598;2023-03-14T07:26:23;97164.66;;;22.73;28.91
51999;BME280;38015;50.924;11.598;2023-03-14T07:28:54;97154.81;;;22.14;30.11
51999;BME280;38015;50.924;11.598;2023-03-14T07:31:24;97144.31;;;21.91;30.81
51999;BME280;38015;50.924;11.598;2023-03-14T07:33:55;97145.71;;;22.22;32.07
51999;BME280;38015;50.924;11.598;2023-03-14T07:36:25;97151.31;;;22.62;32.06
51999;BME280;38015;50.924;11.598;2023-03-14T07:38:56;97153.50;;;22.56;32.42
51999;BME280;38015;50.924;11.598;2023-03-14T07:41:26;97158.82;;;22.53;32.50
51999;BME280;38015;50.924;11.598;2023-03-14T07:43:56;97160.19;;;22.34;32.95
51999;BME280;38015;50.924;11.598;2023-03-14T07:46:27;97166.87;;;22.33;33.21
51999;BME280;38015;50.924;11.598;2023-03-14T07:48:57;97165.46;;;22.53;32.99
51999;BME280;38015;50.924;11.598;2023-03-14T07:51:28;97157.42;;;22.13;33.79
51999;BME280;38015;50.924;11.598;2023-03-14T07:53:58;97157.17;;;22.61;32.76
51999;BME280;38015;50.924;11.598;2023-03-14T07:56:29;97159.42;;;22.86;32.02
51999;BME280;38015;50.924;11.598;2023-03-14T07:58:59;97160.31;;;23.05;31.37
51999;BME280;38015;50.924;11.598;2023-03-14T08:01:30;97160.70;;;23.15;30.97
51999;BME280;38015;50.924;11.598;2023-03-14T08:04:00;97149.49;;;23.05;30.72
51999;BME280;38015;50.924;11.598;2023-03-14T08:06:31;97149.29;;;22.94;30.95
51999;BME280;38015;50.924;11.598;2023-03-14T08:09:02;97157.77;;;23.12;30.34
51999;BME280;38015;50.924;11.598;2023-03-14T08:11:33;97149.40;;;23.22;30.34
51999;BME280;38015;50.924;11.598;2023-03-14T08:14:02;97140.99;;;23.27;30.02
51999;BME280;38015;50.924;11.598;2023-03-14T08:16:33;97141.27;;;23.38;29.83
51999;BME280;38015;50.924;11.598;2023-03-14T08:19:03;97136.36;;;23.33;29.90
51999;BME280;38015;50.924;11.598;2023-03-14T08:21:33;97134.30;;;23.37;29.90
51999;BME280;38015;50.924;11.598;2023-03-14T08:24:04;97134.19;;;23.40;29.78
51999;BME280;38015;50.924;11.598;2023-03-14T08:26:34;97126.82;;;23.40;29.76
51999;BME280;38015;50.924;11.598;2023-03-14T08:29:05;97129.86;;;23.44;29.69
51999;BME280;38015;50.924;11.598;2023-03-14T08:31:35;97129.39;;;23.42;29.70
51999;BME280;38015;50.924;11.598;2023-03-14T08:34:06;97131.29;;;23.30;29.88
51999;BME280;38015;50.924;11.598;2023-03-14T08:36:36;97132.51;;;23.42;29.61
51999;BME280;38015;50.924;11.598;2023-03-14T08:39:06;97135.46;;;23.30;29.85
51999;BME280;38015;50.924;11.598;2023-03-14T08:41:37;97130.75;;;23.41;29.60
51999;BME280;38015;50.924;11.598;2023-03-14T08:44:08;97133.53;;;23.36;29.67
51999;BME280;38015;50.924;11.598;2023-03-14T08:46:38;97147.68;;;23.44;29.52
51999;BME280;38015;50.924;11.598;2023-03-14T08:49:08;97145.29;;;23.32;29.70
51999;BME280;38015;50.924;11.598;2023-03-14T08:51:39;97142.64;;;23.32;29.70
51999;BME280;38015;50.924;11.598;2023-03-14T08:54:10;97143.63;;;23.37;29.58
51999;BME280;38015;50.924;11.598;2023-03-14T08:56:40;97145.31;;;23.47;29.39
51999;BME280;38015;50.924;11.598;2023-03-14T08:59:12;97135.99;;;23.52;29.27
51999;BME280;38015;50.924;11.598;2023-03-14T09:01:41;97146.87;;;23.50;29.26
51999;BME280;38015;50.924;11.598;2023-03-14T09:04:11;97158.17;;;23.56;29.13
51999;BME280;38015;50.924;11.598;2023-03-14T09:06:42;97150.31;;;23.50;29.22
51999;BME280;38015;50.924;11.598;2023-03-14T09:09:12;97150.67;;;23.44;29.29
51999;BME280;38015;50.924;11.598;2023-03-14T09:11:42;97154.20;;;23.55;29.08
51999;BME280;38015;50.924;11.598;2023-03-14T09:14:13;97149.76;;;23.58;28.99
51999;BME280;38015;50.924;11.598;2023-03-14T09:16:43;97156.03;;;23.49;29.13
51999;BME280;38015;50.924;11.598;2023-03-14T09:19:15;97161.82;;;23.54;29.02
51999;BME280;38015;50.924;11.598;2023-03-14T09:21:44;97153.17;;;23.58;28.92
51999;BME280;38015;50.924;11.598;2023-03-14T09:24:15;97168.11;;;23.45;29.11
51999;BME280;38015;50.924;11.598;2023-03-14T09:26:45;97167.37;;;23.55;28.91
51999;BME280;38015;50.924;11.598;2023-03-14T09:29:16;97161.43;;;23.50;28.99
51999;BME280;38015;50.924;11.598;2023-03-14T09:31:48;97172.78;;;23.50;28.96
51999;BME280;38015;50.924;11.598;2023-03-14T09:34:17;97177.51;;;23.52;28.93
51999;BME280;38015;50.924;11.598;2023-03-14T09:36:47;97175.98;;;23.54;28.87
51999;BME280;38015;50.924;11.598;2023-03-14T09:39:19;97178.84;;;23.67;28.64
51999;BME280;38015;50.924;11.598;2023-03-14T09:41:50;97179.14;;;23.51;28.90
51999;BME280;38015;50.924;11.598;2023-03-14T09:44:24;97174.36;;;23.46;28.97
51999;BME280;38015;50.924;11.598;2023-03-14T09:46:52;97173.87;;;23.59;28.71
51999;BME280;38015;50.924;11.598;2023-03-14T09:49:21;97170.95;;;23.60;28.67
51999;BME280;38015;50.924;11.598;2023-03-14T09:51:52;97165.99;;;23.66;28.57
51999;BME280;38015;50.924;11.598;2023-03-14T09:54:31;97157.98;;;23.62;28.62
51999;BME280;38015;50.924;11.598;2023-03-14T09:56:51;97153.96;;;23.70;28.45
51999;BME280;38015;50.924;11.598;2023-03-14T09:59:21;97150.25;;;23.66;28.53
51999;BME280;38015;50.924;11.598;2023-03-14T10:01:52;97154.14;;;23.60;28.62
51999;BME280;38015;50.924;11.598;2023-03-14T10:04:22;97156.71;;;23.61;28.58
51999;BME280;38015;50.924;11.598;2023-03-14T10:06:52;97142.44;;;23.64;28.51
51999;BME280;38015;50.924;11.598;2023-03-14T10:09:23;97146.08;;;23.64;28.51
51999;BME280;38015;50.924;11.598;2023-03-14T10:11:55;97149.26;;;23.53;28.71
51999;BME280;38015;50.924;11.598;2023-03-14T10:14:30;97146.12;;;23.57;28.61
51999;BME280;38015;50.924;11.598;2023-03-14T10:16:54;97139.85;;;23.66;28.46
51999;BME280;38015;50.924;11.598;2023-03-14T10:19:24;97152.01;;;23.70;28.39
51999;BME280;38015;50.924;11.598;2023-03-14T10:21:55;97150.45;;;23.65;28.48
51999;BME280;38015;50.924;11.598;2023-03-14T10:24:29;97161.09;;;23.70;28.36
51999;BME280;38015;50.924;11.598;2023-03-14T10:26:59;97159.52;;;23.70;28.36
51999;BME280;38015;50.924;11.598;2023-03-14T10:29:26;97165.78;;;23.73;28.29
51999;BME280;38015;50.924;11.598;2023-03-14T10:32:00;97173.84;;;23.68;28.40
51999;BME280;38015;50.924;11.598;2023-03-14T10:34:29;97181.47;;;23.64;28.45
51999;BME280;38015;50.924;11.598;2023-03-14T10:37:06;97183.76;;;23.76;28.23
51999;BME280;38015;50.924;11.598;2023-03-14T10:39:37;97182.24;;;23.71;28.31
51999;BME280;38015;50.924;11.598;2023-03-14T10:42:05;97181.90;;;23.74;28.22
51999;BME280;38015;50.924;11.598;2023-03-14T10:44:30;97187.24;;;23.67;28.35
51999;BME280;38015;50.924;11.598;2023-03-14T10:47:01;97188.67;;;23.62;28.53
51999;BME280;38015;50.924;11.598;2023-03-14T10:49:32;97189.63;;;23.70;28.45
51999;BME280;38015;50.924;11.598;2023-03-14T10:52:03;97194.40;;;23.75;28.48
51999;BME280;38015;50.924;11.598;2023-03-14T10:54:31;97188.42;;;23.70;28.64
51999;BME280;38015;50.924;11.598;2023-03-14T10:57:05;97187.04;;;23.70;28.69
51999;BME280;38015;50.924;11.598;2023-03-14T10:59:37;97184.73;;;23.84;28.52
51999;BME280;38015;50.924;11.598;2023-03-14T11:02:14;97183.12;;;23.57;29.01
51999;BME280;38015;50.924;11.598;2023-03-14T11:07:07;97181.55;;;23.77;28.61
51999;BME280;38015;50.924;11.598;2023-03-14T11:09:39;97184.23;;;23.90;28.35
51999;BME280;38015;50.924;11.598;2023-03-14T11:12:16;97178.95;;;23.83;28.46
51999;BME280;38015;50.924;11.598;2023-03-14T11:14:38;97188.09;;;23.92;28.27
51999;BME280;38015;50.924;11.598;2023-03-14T11:17:11;97186.55;;;23.78;28.52
51999;BME280;38015;50.924;11.598;2023-03-14T11:19:47;97184.21;;;23.70;28.63
51999;BME280;38015;50.924;11.598;2023-03-14T11:22:15;97185.43;;;23.79;28.49
51999;BME280;38015;50.924;11.598;2023-03-14T11:24:49;97169.97;;;23.79;28.46
51999;BME280;38015;50.924;11.598;2023-03-14T11:27:17;97183.95;;;23.81;28.41
51999;BME280;38015;50.924;11.598;2023-03-14T11:29:39;97181.29;;;23.80;28.42
51999;BME280;38015;50.924;11.598;2023-03-14T11:32:13;97171.16;;;23.81;28.38
51999;BME280;38015;50.924;11.598;2023-03-14T11:34:44;97179.68;;;23.82;28.34
51999;BME280;38015;50.924;11.598;2023-03-14T11:37:16;97172.62;;;23.83;28.31
51999;BME280;38015;50.924;11.598;2023-03-14T11:39:40;97184.82;;;23.75;28.44
51999;BME280;38015;50.924;11.598;2023-03-14T11:42:12;97178.58;;;23.85;28.22
51999;BME280;38015;50.924;11.598;2023-03-14T11:44:41;97180.22;;;22.60;30.43
51999;BME280;38015;50.924;11.598;2023-03-14T11:47:15;97175.66;;;23.22;29.40
51999;BME280;38015;50.924;11.598;2023-03-14T11:49:47;97175.86;;;23.60;28.70
51999;BME280;38015;50.924;11.598;2023-03-14T11:52:13;97168.25;;;23.76;28.38
51999;BME280;38015;50.924;11.598;2023-03-14T11:54:44;97170.96;;;23.76;28.38
51999;BME280;38015;50.924;11.598;2023-03-14T11:57:14;97165.19;;;23.76;28.36
51999;BME280;38015;50.924;11.598;2023-03-14T11:59:51;97169.38;;;23.12;29.53
51999;BME280;38015;50.924;11.598;2023-03-14T12:02:21;97157.98;;;23.82;28.31
51999;BME280;38015;50.924;11.598;2023-03-14T12:04:52;97157.49;;;23.76;28.40
51999;BME280;38015;50.924;11.598;2023-03-14T12:07:19;97164.03;;;23.79;28.37
51999;BME280;38015;50.924;11.598;2023-03-14T12:09:46;97158.67;;;23.85;28.21
51999;BME280;38015;50.924;11.598;2023-03-14T12:12:18;97151.53;;;23.86;28.21
51999;BME280;38015;50.924;11.598;2023-03-14T12:14:47;97142.61;;;23.82;28.20
51999;BME280;38015;50.924;11.598;2023-03-14T12:17:20;97146.30;;;23.86;28.18
51999;BME280;38015;50.924;11.598;2023-03-14T12:19:46;97146.49;;;23.88;28.13
51999;BME280;38015;50.924;11.598;2023-03-14T12:22:26;97144.32;;;23.80;28.24
51999;BME280;38015;50.924;11.598;2023-03-14T12:24:49;97150.55;;;23.87;28.12
51999;BME280;38015;50.924;11.598;2023-03-14T12:32:23;97135.66;;;23.89;28.04
51999;BME280;38015;50.924;11.598;2023-03-14T12:34:50;97131.10;;;23.51;28.85
51999;BME280;38015;50.924;11.598;2023-03-14T12:37:27;97141.88;;;23.86;28.23
51999;BME280;38015;50.924;11.598;2023-03-14T12:40:00;97139.87;;;23.89;28.25
51999;BME280;38015;50.924;11.598;2023-03-14T12:44:51;97139.87;;;23.92;28.36
51999;BME280;38015;50.924;11.598;2023-03-14T12:49:53;97125.71;;;23.87;28.41
51999;BME280;38015;50.924;11.598;2023-03-14T12:52:29;97128.37;;;23.98;28.33
51999;BME280;38015;50.924;11.598;2023-03-14T12:54:56;97127.16;;;24.04;28.24
51999;BME280;38015;50.924;11.598;2023-03-14T12:57:28;97116.50;;;24.03;28.37
51999;BME280;38015;50.924;11.598;2023-03-14T12:59:56;97120.28;;;24.07;28.35
51999;BME280;38015;50.924;11.598;2023-03-14T13:02:26;97114.39;;;24.02;28.46
51999;BME280;38015;50.924;11.598;2023-03-14T13:05:02;97116.48;;;24.05;28.42
51999;BME280;38015;50.924;11.598;2023-03-14T13:07:30;97126.70;;;24.02;28.53
51999;BME280;38015;50.924;11.598;2023-03-14T13:09:55;97125.24;;;23.65;29.03
51999;BME280;38015;50.924;11.598;2023-03-14T13:12:28;97124.05;;;23.70;28.90
51999;BME280;38015;50.924;11.598;2023-03-14T13:14:59;97108.04;;;23.69;28.70
51999;BME280;38015;50.924;11.598;2023-03-14T13:17:27;97110.25;;;23.63;28.99
51999;BME280;38015;50.924;11.598;2023-03-14T13:19:58;97110.65;;;23.55;29.07
51999;BME280;38015;50.924;11.598;2023-03-14T13:22:31;97111.20;;;23.42;29.30